createdAt,value
2023-02-28T00:00:36.725Z,102491.81
2023-02-28T00:03:03.240Z,102489.41
2023-02-28T00:05:30.174Z,102493.63
2023-02-28T00:07:56.696Z,102485.94
2023-02-28T00:10:27.430Z,102502.06
2023-02-28T00:12:57.701Z,102496.81
2023-02-28T00:15:24.702Z,102491.81
2023-02-28T00:17:51.410Z,102497.09
2023-02-28T00:20:18.034Z,102493.91
2023-02-28T00:22:47.030Z,102502.66
2023-02-28T00:25:17.206Z,102500.28
2023-02-28T00:27:43.661Z,102502.06
2023-02-28T00:30:13.097Z,102502.06
2023-02-28T00:32:39.599Z,102497.84
2023-02-28T00:35:06.770Z,102494.97
2023-02-28T00:37:33.322Z,102489.69
2023-02-28T00:39:59.789Z,102494.81
2023-02-28T00:42:26.541Z,102501.59
2023-02-28T00:44:53.951Z,102497.25
2023-02-28T00:47:20.423Z,102491.81
2023-02-28T00:49:47.078Z,102491.81
2023-02-28T00:52:13.498Z,102496.94
2023-02-28T00:54:39.963Z,102494.38
2023-02-28T00:57:06.494Z,102501.31
2023-02-28T00:59:32.980Z,102491.22
2023-02-28T01:01:59.557Z,102494.69
2023-02-28T01:04:26.072Z,102491.81
2023-02-28T01:06:52.493Z,102484.91
2023-02-28T01:09:19.842Z,102491.38
2023-02-28T01:11:46.402Z,102493.03
2023-02-28T01:14:15.472Z,102491.25
2023-02-28T01:16:42.352Z,102484.88
2023-02-28T01:19:09.091Z,102481.56
2023-02-28T01:21:36.618Z,102482.78
2023-02-28T01:24:04.748Z,102479.47
2023-02-28T01:26:31.611Z,102488.06
2023-02-28T01:28:58.225Z,102483.84
2023-02-28T01:31:24.873Z,102476.00
2023-02-28T01:33:51.379Z,102481.88
2023-02-28T01:36:23.747Z,102478.56
2023-02-28T01:38:50.512Z,102472.69
2023-02-28T01:41:26.260Z,102477.06
2023-02-28T01:43:59.233Z,102462.59
2023-02-28T01:46:25.785Z,102477.97
2023-02-28T01:49:18.552Z,102460.78
2023-02-28T01:51:55.552Z,102463.22
2023-02-28T01:54:27.556Z,102468.94
2023-02-28T01:56:58.820Z,102468.94
2023-02-28T01:59:52.613Z,102468.03
2023-02-28T02:02:21.806Z,102462.91
2023-02-28T02:05:09.964Z,102464.72
2023-02-28T02:07:39.239Z,102464.44
2023-02-28T02:10:17.563Z,102460.78
2023-02-28T02:13:01.341Z,102458.97
2023-02-28T02:15:35.645Z,102459.88
2023-02-28T02:18:08.209Z,102462.28
2023-02-28T02:21:11.463Z,102460.50
2023-02-28T02:24:15.924Z,102460.50
2023-02-28T02:26:51.314Z,102457.94
2023-02-28T02:29:38.936Z,102462.00
2023-02-28T02:32:19.395Z,102461.09
2023-02-28T02:34:57.905Z,102462.59
2023-02-28T02:37:37.966Z,102458.84
2023-02-28T02:40:20.781Z,102454.78
2023-02-28T02:43:03.040Z,102456.28
2023-02-28T02:45:38.481Z,102464.72
2023-02-28T02:48:08.113Z,102465.03
2023-02-28T02:50:38.837Z,102465.78
2023-02-28T02:53:06.782Z,102453.88
2023-02-28T02:55:35.875Z,102464.13
2023-02-28T02:58:05.009Z,102462.31
2023-02-28T03:00:35.272Z,102465.03
2023-02-28T03:03:02.696Z,102467.59
2023-02-28T03:05:49.681Z,102458.09
2023-02-28T03:08:16.411Z,102462.47
2023-02-28T03:10:44.878Z,102464.28
2023-02-28T03:13:46.240Z,102473.47
2023-02-28T03:16:28.225Z,102468.94
2023-02-28T03:19:14.353Z,102465.31
2023-02-28T03:22:13.634Z,102464.41
2023-02-28T03:24:43.254Z,102469.50
2023-02-28T03:27:13.723Z,102467.72
2023-02-28T03:29:47.464Z,102467.72
2023-02-28T03:32:28.048Z,102466.81
2023-02-28T03:35:22.855Z,102469.22
2023-02-28T03:38:04.649Z,102473.59
2023-02-28T03:40:33.698Z,102467.41
2023-02-28T03:43:04.115Z,102476.00
2023-02-28T03:45:32.230Z,102477.03
2023-02-28T03:48:06.333Z,102474.50
2023-02-28T03:50:37.741Z,102484.88
2023-02-28T03:53:09.013Z,102476.44
2023-02-28T03:55:40.135Z,102468.75
2023-02-28T03:58:33.390Z,102468.63
2023-02-28T04:01:13.673Z,102472.84
2023-02-28T04:03:40.411Z,102481.41
2023-02-28T04:08:40.847Z,102481.72
2023-02-28T04:11:43.453Z,102479.31
2023-02-28T04:14:11.390Z,102479.47
2023-02-28T04:16:40.247Z,102476.75
2023-02-28T04:19:08.609Z,102483.81
2023-02-28T04:21:40.325Z,102473.44
2023-02-28T04:24:09.079Z,102474.34
2023-02-28T04:26:37.306Z,102482.03
2023-02-28T04:29:05.843Z,102479.59
2023-02-28T04:31:33.134Z,102475.25
2023-02-28T04:34:00.061Z,102478.56
2023-02-28T04:36:27.032Z,102475.84
2023-02-28T04:38:53.594Z,102485.03
2023-02-28T04:41:20.471Z,102482.31
2023-02-28T04:43:46.917Z,102483.09
2023-02-28T04:46:13.464Z,102482.00
2023-02-28T04:48:40.909Z,102486.53
2023-02-28T04:51:09.794Z,102485.78
2023-02-28T04:53:37.781Z,102484.75
2023-02-28T04:56:04.590Z,102481.84
2023-02-28T04:58:31.095Z,102480.94
2023-02-28T05:01:05.916Z,102479.75
2023-02-28T05:03:32.440Z,102481.09
2023-02-28T05:05:59.012Z,102485.31
2023-02-28T05:08:26.245Z,102483.34
2023-02-28T05:10:52.797Z,102487.38
2023-02-28T05:13:19.415Z,102484.69
2023-02-28T05:15:46.048Z,102484.97
2023-02-28T05:18:12.687Z,102493.69
2023-02-28T05:20:39.303Z,102493.88
2023-02-28T05:23:05.790Z,102488.16
2023-02-28T05:25:32.278Z,102495.81
2023-02-28T05:27:58.831Z,102489.47
2023-02-28T05:30:25.342Z,102495.19
2023-02-28T05:32:52.627Z,102492.31
2023-02-28T05:35:19.386Z,102497.13
2023-02-28T05:37:45.853Z,102505.25
2023-02-28T05:40:12.755Z,102498.91
2023-02-28T05:42:39.391Z,102521.75
2023-02-28T05:45:07.909Z,102514.53
2023-02-28T05:47:34.480Z,102512.56
2023-02-28T05:50:01.443Z,102514.78
2023-02-28T05:52:28.712Z,102515.22
2023-02-28T05:54:55.191Z,102514.19
2023-02-28T05:57:24.727Z,102508.00
2023-02-28T05:59:51.829Z,102521.69
2023-02-28T06:02:19.030Z,102526.50
2023-02-28T06:04:46.125Z,102522.88
2023-02-28T06:07:12.913Z,102521.03
2023-02-28T06:09:40.401Z,102516.69
2023-02-28T06:12:08.276Z,102522.53
2023-02-28T06:14:35.561Z,102536.06
2023-02-28T06:17:02.253Z,102537.56
2023-02-28T06:19:29.645Z,102536.81
2023-02-28T06:21:57.824Z,102532.47
2023-02-28T06:24:25.652Z,102534.25
2023-02-28T06:26:52.170Z,102539.38
2023-02-28T06:29:19.494Z,102547.03
2023-02-28T06:31:47.030Z,102532.47
2023-02-28T06:34:14.091Z,102554.72
2023-02-28T06:36:41.889Z,102552.66
2023-02-28T06:39:09.140Z,102558.06
2023-02-28T06:41:53.579Z,102552.38
2023-02-28T06:44:21.021Z,102556.13
2023-02-28T06:46:48.009Z,102555.69
2023-02-28T06:49:14.787Z,102562.06
2023-02-28T06:51:42.941Z,102558.91
2023-02-28T06:54:10.642Z,102555.00
2023-02-28T06:56:37.270Z,102557.13
2023-02-28T06:59:04.518Z,102553.84
2023-02-28T07:01:32.939Z,102559.41
2023-02-28T07:04:01.097Z,102564.09
2023-02-28T07:06:28.229Z,102567.84
2023-02-28T07:08:55.170Z,102568.19
2023-02-28T07:11:23.593Z,102567.75
2023-02-28T07:13:51.963Z,102562.19
2023-02-28T07:16:18.929Z,102569.25
2023-02-28T07:18:45.559Z,102580.72
2023-02-28T07:21:12.374Z,102573.34
2023-02-28T07:23:39.632Z,102587.50
2023-02-28T07:26:07.692Z,102585.09
2023-02-28T07:28:34.205Z,102583.63
2023-02-28T07:31:08.190Z,102579.41
2023-02-28T07:33:35.165Z,102589.06
2023-02-28T07:36:03.744Z,102582.72
2023-02-28T07:38:30.290Z,102580.31
2023-02-28T07:40:56.775Z,102595.06
2023-02-28T07:43:23.235Z,102586.03
2023-02-28T07:45:49.731Z,102584.25
2023-02-28T07:48:16.537Z,102586.94
2023-02-28T07:50:43.014Z,102586.34
2023-02-28T07:53:09.518Z,102587.41
2023-02-28T07:55:36.097Z,102592.69
2023-02-28T07:58:02.568Z,102588.47
2023-02-28T08:00:30.102Z,102599.06
2023-02-28T08:02:56.663Z,102591.22
2023-02-28T08:05:23.139Z,102591.69
2023-02-28T08:07:52.609Z,102586.44
2023-02-28T08:10:19.228Z,102589.91
2023-02-28T08:12:45.707Z,102582.50
2023-02-28T08:15:12.203Z,102587.63
2023-02-28T08:17:38.802Z,102586.75
2023-02-28T08:20:05.670Z,102588.38
2023-02-28T08:22:32.143Z,102589.91
2023-02-28T08:24:58.607Z,102586.13
2023-02-28T08:27:25.164Z,102596.81
2023-02-28T08:29:51.692Z,102595.94
2023-02-28T08:32:29.350Z,102593.22
2023-02-28T08:34:56.498Z,102598.31
2023-02-28T08:37:22.976Z,102601.66
2023-02-28T08:39:49.453Z,102598.91
2023-02-28T08:42:15.910Z,102596.47
2023-02-28T08:44:42.429Z,102598.13
2023-02-28T08:47:09.054Z,102591.78
2023-02-28T08:49:35.525Z,102599.13
2023-02-28T08:52:02.047Z,102597.94
2023-02-28T08:54:31.695Z,102595.78
2023-02-28T08:56:58.362Z,102596.22
2023-02-28T08:59:24.873Z,102597.72
2023-02-28T09:01:51.464Z,102591.06
2023-02-28T09:04:20.064Z,102603.75
2023-02-28T09:06:47.394Z,102594.66
2023-02-28T09:09:13.941Z,102587.38
2023-02-28T09:11:40.562Z,102587.06
2023-02-28T09:14:07.083Z,102586.72
2023-02-28T09:16:35.995Z,102595.16
2023-02-28T09:19:03.221Z,102591.47
2023-02-28T09:21:30.100Z,102591.91
2023-02-28T09:23:56.909Z,102586.31
2023-02-28T09:26:25.887Z,102584.00
2023-02-28T09:28:54.762Z,102594.06
2023-02-28T09:31:25.227Z,102590.28
2023-02-28T09:33:54.490Z,102591.47
2023-02-28T09:36:23.229Z,102594.16
2023-02-28T09:38:52.002Z,102594.31
2023-02-28T09:41:21.146Z,102594.56
2023-02-28T09:43:51.510Z,102597.59
2023-02-28T09:46:38.676Z,102592.59
2023-02-28T09:49:13.909Z,102597.50
2023-02-28T09:51:44.946Z,102598.72
2023-02-28T09:54:20.190Z,102592.03
2023-02-28T09:56:55.168Z,102589.75
2023-02-28T09:59:41.674Z,102585.78
2023-02-28T10:02:17.172Z,102581.97
2023-02-28T10:04:52.755Z,102597.94
2023-02-28T10:07:56.738Z,102601.53
2023-02-28T10:10:27.891Z,102600.31
2023-02-28T10:12:56.363Z,102601.34
2023-02-28T10:15:25.719Z,102598.78
2023-02-28T10:18:08.379Z,102601.47
2023-02-28T10:20:38.564Z,102590.56
2023-02-28T10:23:11.889Z,102595.84
2023-02-28T10:25:39.631Z,102589.78
2023-02-28T10:28:16.870Z,102588.41
2023-02-28T10:30:52.316Z,102592.94
2023-02-28T10:33:24.230Z,102590.75
2023-02-28T10:35:51.695Z,102594.88
2023-02-28T10:38:39.339Z,102595.00
2023-02-28T10:41:18.348Z,102595.91
2023-02-28T10:43:48.308Z,102596.03
2023-02-28T10:46:27.204Z,102587.69
2023-02-28T10:49:04.481Z,102589.34
2023-02-28T10:51:41.546Z,102582.97
2023-02-28T10:54:17.132Z,102587.34
2023-02-28T10:56:43.590Z,102580.94
2023-02-28T10:59:15.955Z,102563.56
2023-02-28T11:01:46.109Z,102574.75
2023-02-28T11:04:34.073Z,102568.19
2023-02-28T11:07:04.031Z,102569.09
2023-02-28T11:09:39.782Z,102571.34
2023-02-28T11:12:22.004Z,102569.03
2023-02-28T11:14:51.227Z,102561.69
2023-02-28T11:17:28.327Z,102565.75
2023-02-28T11:19:58.575Z,102567.94
2023-02-28T11:22:29.816Z,102563.97
2023-02-28T11:24:59.384Z,102565.16
2023-02-28T11:27:50.535Z,102557.91
2023-02-28T11:30:43.186Z,102551.22
2023-02-28T11:33:30.777Z,102542.00
2023-02-28T11:36:05.473Z,102546.06
2023-02-28T11:38:35.394Z,102541.69
2023-02-28T11:41:32.876Z,102539.41
2023-02-28T11:44:06.140Z,102540.56
2023-02-28T11:47:05.421Z,102537.63
2023-02-28T11:49:37.040Z,102533.78
2023-02-28T11:52:09.843Z,102541.00
2023-02-28T11:55:15.646Z,102536.09
2023-02-28T11:58:13.591Z,102536.88
2023-02-28T12:00:48.444Z,102533.28
2023-02-28T12:03:21.152Z,102540.59
2023-02-28T12:05:52.878Z,102526.19
2023-02-28T12:08:47.288Z,102526.34
2023-02-28T12:11:35.541Z,102523.00
2023-02-28T12:14:15.114Z,102518.31
2023-02-28T12:17:00.409Z,102513.81
2023-02-28T12:19:31.173Z,102528.13
2023-02-28T12:22:36.939Z,102525.16
2023-02-28T12:25:23.300Z,102522.47
2023-02-28T12:27:51.370Z,102510.50
2023-02-28T12:30:25.317Z,102518.47
2023-02-28T12:33:05.418Z,102510.25
2023-02-28T12:35:39.146Z,102508.72
2023-02-28T12:38:18.696Z,102501.88
2023-02-28T12:40:50.124Z,102495.94
2023-02-28T12:43:18.550Z,102486.94
2023-02-28T12:45:54.596Z,102490.81
2023-02-28T12:48:43.590Z,102477.41
2023-02-28T12:51:10.489Z,102479.44
2023-02-28T12:54:04.722Z,102473.63
2023-02-28T12:56:46.126Z,102470.41
2023-02-28T12:59:19.506Z,102458.72
2023-02-28T13:02:11.707Z,102453.16
2023-02-28T13:04:45.529Z,102465.25
2023-02-28T13:07:26.141Z,102455.06
2023-02-28T13:09:54.997Z,102452.50
2023-02-28T13:12:23.783Z,102453.38
2023-02-28T13:14:51.231Z,102448.22
2023-02-28T13:17:20.757Z,102450.81
2023-02-28T13:20:17.500Z,102451.59
2023-02-28T13:22:46.229Z,102454.94
2023-02-28T13:25:34.508Z,102452.50
2023-02-28T13:28:05.282Z,102450.31
2023-02-28T13:31:05.246Z,102454.69
2023-02-28T13:33:34.217Z,102451.44
2023-02-28T13:36:08.447Z,102448.22
2023-02-28T13:38:43.279Z,102453.50
2023-02-28T13:41:31.550Z,102446.28
2023-02-28T13:44:02.001Z,102452.09
2023-02-28T13:46:28.775Z,102453.66
2023-02-28T13:48:55.260Z,102449.13
2023-02-28T13:51:41.993Z,102447.59
2023-02-28T13:54:18.217Z,102447.84
2023-02-28T13:56:58.472Z,102442.81
2023-02-28T13:59:36.566Z,102442.69
2023-02-28T14:02:30.443Z,102447.19
2023-02-28T14:05:27.982Z,102438.69
2023-02-28T14:07:58.217Z,102438.16
2023-02-28T14:10:28.482Z,102438.28
2023-02-28T14:12:57.921Z,102429.63
2023-02-28T14:15:40.149Z,102434.78
2023-02-28T14:18:15.914Z,102424.47
2023-02-28T14:20:43.502Z,102426.16
2023-02-28T14:23:26.084Z,102424.63
2023-02-28T14:26:04.466Z,102423.69
2023-02-28T14:28:42.183Z,102417.81
2023-02-28T14:31:12.410Z,102414.31
2023-02-28T14:33:50.011Z,102413.41
2023-02-28T14:36:23.097Z,102416.75
2023-02-28T14:38:56.094Z,102409.56
2023-02-28T14:41:37.983Z,102416.75
2023-02-28T14:44:17.567Z,102409.03
2023-02-28T14:46:44.994Z,102404.03
2023-02-28T14:49:47.916Z,102410.06
2023-02-28T14:52:23.423Z,102401.28
2023-02-28T14:55:01.437Z,102403.88
2023-02-28T14:57:33.304Z,102408.25
2023-02-28T15:00:14.891Z,102403.09
2023-02-28T15:02:42.434Z,102403.09
2023-02-28T15:05:17.619Z,102402.84
2023-02-28T15:07:48.838Z,102410.47
2023-02-28T15:10:21.383Z,102402.59
2023-02-28T15:13:03.688Z,102408.78
2023-02-28T15:16:02.396Z,102401.03
2023-02-28T15:18:49.242Z,102403.50
2023-02-28T15:21:22.508Z,102412.69
2023-02-28T15:23:56.173Z,102408.06
2023-02-28T15:26:26.764Z,102406.75
2023-02-28T15:29:06.606Z,102406.66
2023-02-28T15:31:55.996Z,102403.81
2023-02-28T15:34:37.063Z,102401.13
2023-02-28T15:37:44.919Z,102404.38
2023-02-28T15:40:18.221Z,102404.97
2023-02-28T15:43:08.915Z,102405.28
2023-02-28T15:45:47.110Z,102404.25
2023-02-28T15:48:22.438Z,102405.03
2023-02-28T15:50:52.891Z,102404.75
2023-02-28T15:53:24.187Z,102407.84
2023-02-28T15:56:01.180Z,102407.63
2023-02-28T15:58:27.814Z,102410.97
2023-02-28T16:01:06.537Z,102393.31
2023-02-28T16:03:40.467Z,102406.19
2023-02-28T16:06:36.044Z,102404.91
2023-02-28T16:09:03.606Z,102399.41
2023-02-28T16:11:31.711Z,102406.09
2023-02-28T16:13:58.857Z,102402.47
2023-02-28T16:16:26.857Z,102406.72
2023-02-28T16:18:53.644Z,102396.81
2023-02-28T16:21:20.207Z,102397.59
2023-02-28T16:23:46.794Z,102407.38
2023-02-28T16:26:21.393Z,102408.91
2023-02-28T16:28:48.065Z,102413.94
2023-02-28T16:31:17.478Z,102416.25
2023-02-28T16:33:45.770Z,102431.31
2023-02-28T16:36:21.228Z,102435.41
2023-02-28T16:38:47.782Z,102435.94
2023-02-28T16:41:26.365Z,102433.50
2023-02-28T16:43:55.229Z,102431.81
2023-02-28T16:46:21.908Z,102436.84
2023-02-28T16:48:52.481Z,102439.53
2023-02-28T16:51:19.495Z,102442.09
2023-02-28T16:53:46.280Z,102440.81
2023-02-28T16:56:21.661Z,102439.34
2023-02-28T16:58:48.741Z,102445.78
2023-02-28T17:01:15.711Z,102438.47
2023-02-28T17:03:43.116Z,102438.34
2023-02-28T17:06:24.076Z,102445.63
2023-02-28T17:08:51.718Z,102445.13
2023-02-28T17:11:18.957Z,102444.69
2023-02-28T17:13:46.045Z,102449.44
2023-02-28T17:16:36.193Z,102450.47
2023-02-28T17:19:05.926Z,102450.81
2023-02-28T17:21:34.071Z,102449.41
2023-02-28T17:24:01.222Z,102447.03
2023-02-28T17:26:29.007Z,102455.91
2023-02-28T17:28:59.273Z,102449.03
2023-02-28T17:31:27.059Z,102453.78
2023-02-28T17:33:55.293Z,102462.84
2023-02-28T17:36:25.474Z,102458.84
2023-02-28T17:38:52.727Z,102450.44
2023-02-28T17:41:19.365Z,102460.31
2023-02-28T17:43:45.926Z,102459.16
2023-02-28T17:46:23.735Z,102458.56
2023-02-28T17:48:53.992Z,102464.34
2023-02-28T17:51:22.988Z,102454.44
2023-02-28T17:53:50.138Z,102455.03
2023-02-28T17:56:22.608Z,102459.75
2023-02-28T17:58:49.197Z,102461.03
2023-02-28T18:01:15.782Z,102466.34
2023-02-28T18:03:42.420Z,102460.94
2023-02-28T18:06:15.680Z,102469.13
2023-02-28T18:08:42.350Z,102470.22
2023-02-28T18:11:18.019Z,102469.03
2023-02-28T18:13:46.677Z,102471.78
2023-02-28T18:16:13.558Z,102466.38
2023-02-28T18:18:40.071Z,102468.53
2023-02-28T18:21:08.254Z,102468.25
2023-02-28T18:23:35.152Z,102463.72
2023-02-28T18:26:01.784Z,102468.56
2023-02-28T18:28:28.259Z,102463.91
2023-02-28T18:30:54.730Z,102457.47
2023-02-28T18:33:21.368Z,102456.13
2023-02-28T18:35:56.009Z,102459.94
2023-02-28T18:38:22.649Z,102460.41
2023-02-28T18:41:03.376Z,102455.44
2023-02-28T18:43:31.608Z,102449.75
2023-02-28T18:45:58.598Z,102453.66
2023-02-28T18:48:25.100Z,102459.13
2023-02-28T18:50:52.120Z,102462.31
2023-02-28T18:53:19.248Z,102458.25
2023-02-28T18:55:45.958Z,102462.81
2023-02-28T18:58:12.954Z,102455.59
2023-02-28T19:00:39.533Z,102468.84
2023-02-28T19:03:06.099Z,102466.75
2023-02-28T19:05:34.540Z,102462.25
2023-02-28T19:08:02.064Z,102461.03
2023-02-28T19:10:28.715Z,102460.44
2023-02-28T19:12:55.699Z,102462.72
2023-02-28T19:15:22.309Z,102458.06
2023-02-28T19:17:49.092Z,102454.13
2023-02-28T19:20:15.841Z,102451.16
2023-02-28T19:22:42.654Z,102468.03
2023-02-28T19:25:09.711Z,102465.00
2023-02-28T19:27:36.319Z,102469.81
2023-02-28T19:30:04.288Z,102468.50
2023-02-28T19:32:30.843Z,102470.75
2023-02-28T19:34:57.889Z,102474.03
2023-02-28T19:37:24.423Z,102463.50
2023-02-28T19:39:50.922Z,102475.25
2023-02-28T19:42:18.239Z,102470.75
2023-02-28T19:44:45.256Z,102475.56
2023-02-28T19:47:12.598Z,102479.47
2023-02-28T19:49:39.157Z,102483.38
2023-02-28T19:52:05.707Z,102486.56
2023-02-28T19:54:32.240Z,102485.34
2023-02-28T19:56:58.781Z,102487.59
2023-02-28T19:59:36.047Z,102493.16
2023-02-28T20:02:05.858Z,102496.31
2023-02-28T20:04:32.354Z,102506.25
2023-02-28T20:06:58.813Z,102500.50
2023-02-28T20:09:25.370Z,102504.44
2023-02-28T20:11:52.075Z,102498.09
2023-02-28T20:14:18.668Z,102501.41
2023-02-28T20:16:46.013Z,102496.31
2023-02-28T20:19:13.282Z,102496.31
2023-02-28T20:21:41.438Z,102485.72
2023-02-28T20:24:08.007Z,102487.56
2023-02-28T20:26:35.016Z,102487.25
2023-02-28T20:29:01.496Z,102490.56
2023-02-28T20:31:28.785Z,102493.72
2023-02-28T20:33:55.302Z,102490.25
2023-02-28T20:36:23.500Z,102495.06
2023-02-28T20:38:51.707Z,102498.38
2023-02-28T20:41:18.831Z,102495.66
2023-02-28T20:43:45.843Z,102494.44
2023-02-28T20:46:12.576Z,102506.47
2023-02-28T20:48:39.710Z,102506.41
2023-02-28T20:51:06.913Z,102497.38
2023-02-28T20:53:34.543Z,102507.31
2023-02-28T20:56:06.615Z,102504.25
2023-02-28T20:58:37.023Z,102510.88
2023-02-28T21:01:17.781Z,102510.56
2023-02-28T21:03:49.941Z,102509.00
2023-02-28T21:06:19.087Z,102507.06
2023-02-28T21:08:45.781Z,102512.00
2023-02-28T21:11:17.842Z,102504.94
2023-02-28T21:13:45.218Z,102498.78
2023-02-28T21:16:14.144Z,102490.78
2023-02-28T21:18:41.160Z,102494.81
2023-02-28T21:21:11.050Z,102494.66
2023-02-28T21:23:38.142Z,102490.91
2023-02-28T21:26:06.485Z,102499.00
2023-02-28T21:28:33.569Z,102483.50
2023-02-28T21:31:08.268Z,102486.47
2023-02-28T21:33:35.389Z,102483.59
2023-02-28T21:36:11.087Z,102484.94
2023-02-28T21:38:38.360Z,102484.78
2023-02-28T21:41:12.772Z,102488.66
2023-02-28T21:43:39.749Z,102503.66
2023-02-28T21:46:08.651Z,102490.75
2023-02-28T21:48:35.678Z,102477.97
2023-02-28T21:51:07.698Z,102477.81
2023-02-28T21:53:36.665Z,102478.41
2023-02-28T21:56:05.096Z,102476.59
2023-02-28T21:58:31.552Z,102481.56
2023-02-28T22:01:05.333Z,102480.50
2023-02-28T22:03:32.050Z,102475.94
2023-02-28T22:05:58.556Z,102478.50
2023-02-28T22:08:25.029Z,102481.66
2023-02-28T22:10:51.627Z,102480.44
2023-02-28T22:13:18.033Z,102481.00
2023-02-28T22:15:44.448Z,102479.06
2023-02-28T22:18:11.492Z,102487.41
2023-02-28T22:20:37.900Z,102492.38
2023-02-28T22:23:04.364Z,102492.97
2023-02-28T22:25:30.794Z,102486.78
2023-02-28T22:27:57.281Z,102489.19
2023-02-28T22:30:23.696Z,102483.94
2023-02-28T22:32:50.116Z,102486.16
2023-02-28T22:35:19.389Z,102480.72
2023-02-28T22:37:47.942Z,102486.56
2023-02-28T22:40:14.392Z,102484.75
2023-02-28T22:42:40.804Z,102489.53
2023-02-28T22:45:07.774Z,102490.13
2023-02-28T22:47:34.224Z,102496.72
2023-02-28T22:50:00.655Z,102497.47
2023-02-28T22:52:28.160Z,102497.47
2023-02-28T22:54:54.625Z,102496.38
2023-02-28T22:57:21.085Z,102499.66
2023-02-28T22:59:47.712Z,102500.25
2023-02-28T23:02:14.134Z,102504.28
2023-02-28T23:04:40.756Z,102509.97
2023-02-28T23:07:07.192Z,102504.72
2023-02-28T23:09:33.602Z,102493.44
2023-02-28T23:12:00.014Z,102499.84
2023-02-28T23:14:26.466Z,102498.78
2023-02-28T23:16:54.153Z,102500.25
2023-02-28T23:19:26.458Z,102502.50
2023-02-28T23:21:53.450Z,102505.78
2023-02-28T23:24:21.658Z,102503.06
2023-02-28T23:26:50.331Z,102505.25
2023-02-28T23:29:18.848Z,102506.00
2023-02-28T23:31:45.430Z,102508.97
2023-02-28T23:34:12.307Z,102513.59
2023-02-28T23:36:43.411Z,102510.69
2023-02-28T23:39:09.837Z,102510.38
2023-02-28T23:41:36.262Z,102510.94
2023-02-28T23:44:02.664Z,102505.53
2023-02-28T23:46:29.415Z,102506.25
2023-02-28T23:48:56.097Z,102506.66
2023-02-28T23:51:22.841Z,102501.22
2023-02-28T23:53:51.581Z,102502.69
2023-02-28T23:56:20.676Z,102511.66
2023-02-28T23:58:47.684Z,102512.25
